sensor_id;sensor_type;location;lat;lon;timestamp;temperature;humidity
24260;DHT22;12384;48.112;18.418;2022-07-29T00:00:33;22.70;63.40
24260;DHT22;12384;48.112;18.418;2022-07-29T00:03:02;22.70;63.50
24260;DHT22;12384;48.112;18.418;2022-07-29T00:05:31;22.70;63.70
24260;DHT22;12384;48.112;18.418;2022-07-29T00:08:00;22.70;63.90
24260;DHT22;12384;48.112;18.418;2022-07-29T00:10:29;22.70;63.50
24260;DHT22;12384;48.112;18.418;2022-07-29T00:12:58;22.70;62.90
24260;DHT22;12384;48.112;18.418;2022-07-29T00:15:27;22.60;63.20
24260;DHT22;12384;48.112;18.418;2022-07-29T00:17:57;22.60;63.40
24260;DHT22;12384;48.112;18.418;2022-07-29T00:20:26;22.60;63.50
24260;DHT22;12384;48.112;18.418;2022-07-29T00:22:56;22.60;62.90
24260;DHT22;12384;48.112;18.418;2022-07-29T00:25:25;22.50;62.40
24260;DHT22;12384;48.112;18.418;2022-07-29T00:27:54;22.50;61.90
24260;DHT22;12384;48.112;18.418;2022-07-29T00:30:23;22.50;62.10
24260;DHT22;12384;48.112;18.418;2022-07-29T00:32:51;22.50;62.30
24260;DHT22;12384;48.112;18.418;2022-07-29T00:35:22;22.50;62.80
24260;DHT22;12384;48.112;18.418;2022-07-29T00:38:08;22.50;63.30
24260;DHT22;12384;48.112;18.418;2022-07-29T00:40:37;22.40;63.40
24260;DHT22;12384;48.112;18.418;2022-07-29T00:43:11;22.50;63.50
24260;DHT22;12384;48.112;18.418;2022-07-29T00:45:40;22.40;62.80
24260;DHT22;12384;48.112;18.418;2022-07-29T00:48:10;22.40;63.40
24260;DHT22;12384;48.112;18.418;2022-07-29T00:50:40;22.30;62.80
24260;DHT22;12384;48.112;18.418;2022-07-29T00:53:09;22.40;63.00
24260;DHT22;12384;48.112;18.418;2022-07-29T00:55:40;22.30;62.90
24260;DHT22;12384;48.112;18.418;2022-07-29T00:58:09;22.30;63.30
24260;DHT22;12384;48.112;18.418;2022-07-29T01:00:40;22.30;63.40
24260;DHT22;12384;48.112;18.418;2022-07-29T01:03:11;22.20;63.60
24260;DHT22;12384;48.112;18.418;2022-07-29T01:05:43;22.20;63.00
24260;DHT22;12384;48.112;18.418;2022-07-29T01:08:18;22.20;63.60
24260;DHT22;12384;48.112;18.418;2022-07-29T01:10:49;22.10;63.40
24260;DHT22;12384;48.112;18.418;2022-07-29T01:13:21;22.10;63.60
24260;DHT22;12384;48.112;18.418;2022-07-29T01:15:54;22.00;64.00
24260;DHT22;12384;48.112;18.418;2022-07-29T01:18:30;22.10;64.50
24260;DHT22;12384;48.112;18.418;2022-07-29T01:21:27;22.00;63.60
24260;DHT22;12384;48.112;18.418;2022-07-29T01:24:30;22.00;61.80
24260;DHT22;12384;48.112;18.418;2022-07-29T01:27:08;22.00;61.20
24260;DHT22;12384;48.112;18.418;2022-07-29T01:29:48;22.00;64.70
24260;DHT22;12384;48.112;18.418;2022-07-29T01:32:20;21.90;64.70
24260;DHT22;12384;48.112;18.418;2022-07-29T01:35:11;21.90;65.20
24260;DHT22;12384;48.112;18.418;2022-07-29T01:37:45;21.90;63.40
24260;DHT22;12384;48.112;18.418;2022-07-29T01:40:20;21.90;64.30
24260;DHT22;12384;48.112;18.418;2022-07-29T01:42:52;21.90;64.60
24260;DHT22;12384;48.112;18.418;2022-07-29T01:45:28;21.80;63.90
24260;DHT22;12384;48.112;18.418;2022-07-29T01:48:02;21.90;64.60
24260;DHT22;12384;48.112;18.418;2022-07-29T01:50:35;21.80;63.80
24260;DHT22;12384;48.112;18.418;2022-07-29T01:53:09;21.80;64.00
24260;DHT22;12384;48.112;18.418;2022-07-29T01:55:42;21.80;64.70
24260;DHT22;12384;48.112;18.418;2022-07-29T01:58:12;21.80;64.20
24260;DHT22;12384;48.112;18.418;2022-07-29T02:00:48;21.70;63.90
24260;DHT22;12384;48.112;18.418;2022-07-29T02:03:20;21.70;64.50
24260;DHT22;12384;48.112;18.418;2022-07-29T02:05:50;21.70;64.40
24260;DHT22;12384;48.112;18.418;2022-07-29T02:08:20;21.60;64.20
24260;DHT22;12384;48.112;18.418;2022-07-29T02:10:51;21.60;64.50
24260;DHT22;12384;48.112;18.418;2022-07-29T02:13:23;21.60;64.40
24260;DHT22;12384;48.112;18.418;2022-07-29T02:15:56;21.50;63.40
24260;DHT22;12384;48.112;18.418;2022-07-29T02:18:28;21.60;64.60
24260;DHT22;12384;48.112;18.418;2022-07-29T02:20:59;21.50;64.10
24260;DHT22;12384;48.112;18.418;2022-07-29T02:23:29;21.50;64.60
24260;DHT22;12384;48.112;18.418;2022-07-29T02:26:17;21.50;64.80
24260;DHT22;12384;48.112;18.418;2022-07-29T02:28:47;21.40;64.20
24260;DHT22;12384;48.112;18.418;2022-07-29T02:31:19;21.40;63.80
24260;DHT22;12384;48.112;18.418;2022-07-29T02:33:50;21.40;63.90
24260;DHT22;12384;48.112;18.418;2022-07-29T02:36:22;21.30;63.90
24260;DHT22;12384;48.112;18.418;2022-07-29T02:38:52;21.30;63.80
24260;DHT22;12384;48.112;18.418;2022-07-29T02:41:28;21.30;64.20
24260;DHT22;12384;48.112;18.418;2022-07-29T02:44:05;21.30;64.10
24260;DHT22;12384;48.112;18.418;2022-07-29T02:46:38;21.30;64.80
24260;DHT22;12384;48.112;18.418;2022-07-29T02:49:15;21.20;64.20
24260;DHT22;12384;48.112;18.418;2022-07-29T02:51:46;21.20;64.60
24260;DHT22;12384;48.112;18.418;2022-07-29T02:54:26;21.20;64.40
24260;DHT22;12384;48.112;18.418;2022-07-29T02:56:59;21.20;63.70
24260;DHT22;12384;48.112;18.418;2022-07-29T02:59:30;21.20;64.70
24260;DHT22;12384;48.112;18.418;2022-07-29T03:02:02;21.20;64.90
24260;DHT22;12384;48.112;18.418;2022-07-29T03:04:32;21.20;65.00
24260;DHT22;12384;48.112;18.418;2022-07-29T03:07:03;21.10;64.60
24260;DHT22;12384;48.112;18.418;2022-07-29T03:09:33;21.10;64.70
24260;DHT22;12384;48.112;18.418;2022-07-29T03:12:02;21.10;64.30
24260;DHT22;12384;48.112;18.418;2022-07-29T03:14:32;21.10;64.80
24260;DHT22;12384;48.112;18.418;2022-07-29T03:17:02;21.10;64.90
24260;DHT22;12384;48.112;18.418;2022-07-29T03:19:31;21.10;65.20
24260;DHT22;12384;48.112;18.418;2022-07-29T03:22:01;21.10;65.00
24260;DHT22;12384;48.112;18.418;2022-07-29T03:24:32;21.00;64.70
24260;DHT22;12384;48.112;18.418;2022-07-29T03:27:01;21.10;64.60
24260;DHT22;12384;48.112;18.418;2022-07-29T03:29:30;21.10;64.80
24260;DHT22;12384;48.112;18.418;2022-07-29T03:32:05;21.00;64.70
24260;DHT22;12384;48.112;18.418;2022-07-29T03:34:36;21.00;64.50
24260;DHT22;12384;48.112;18.418;2022-07-29T03:37:05;21.00;64.20
24260;DHT22;12384;48.112;18.418;2022-07-29T03:39:38;21.00;64.70
24260;DHT22;12384;48.112;18.418;2022-07-29T03:42:11;21.00;65.10
24260;DHT22;12384;48.112;18.418;2022-07-29T03:44:44;21.00;64.20
24260;DHT22;12384;48.112;18.418;2022-07-29T03:47:17;21.10;64.90
24260;DHT22;12384;48.112;18.418;2022-07-29T03:50:11;21.10;64.60
24260;DHT22;12384;48.112;18.418;2022-07-29T03:52:42;21.10;64.40
24260;DHT22;12384;48.112;18.418;2022-07-29T03:55:11;21.10;64.20
24260;DHT22;12384;48.112;18.418;2022-07-29T03:57:40;21.10;64.10
24260;DHT22;12384;48.112;18.418;2022-07-29T04:00:10;21.10;63.80
24260;DHT22;12384;48.112;18.418;2022-07-29T04:02:41;21.20;63.50
24260;DHT22;12384;48.112;18.418;2022-07-29T04:05:12;21.20;63.90
24260;DHT22;12384;48.112;18.418;2022-07-29T04:07:44;21.30;64.00
24260;DHT22;12384;48.112;18.418;2022-07-29T04:10:13;21.30;63.50
24260;DHT22;12384;48.112;18.418;2022-07-29T04:12:56;21.30;63.80
24260;DHT22;12384;48.112;18.418;2022-07-29T04:15:25;21.40;64.30
24260;DHT22;12384;48.112;18.418;2022-07-29T04:17:59;21.50;63.60
24260;DHT22;12384;48.112;18.418;2022-07-29T04:20:28;21.50;63.10
24260;DHT22;12384;48.112;18.418;2022-07-29T04:22:56;21.60;63.50
24260;DHT22;12384;48.112;18.418;2022-07-29T04:25:25;21.70;63.80
24260;DHT22;12384;48.112;18.418;2022-07-29T04:27:54;21.70;63.50
24260;DHT22;12384;48.112;18.418;2022-07-29T04:30:30;21.80;63.00
24260;DHT22;12384;48.112;18.418;2022-07-29T04:33:00;21.80;63.40
24260;DHT22;12384;48.112;18.418;2022-07-29T04:35:30;21.90;61.90
24260;DHT22;12384;48.112;18.418;2022-07-29T04:38:05;21.90;61.50
24260;DHT22;12384;48.112;18.418;2022-07-29T04:40:42;22.00;62.60
24260;DHT22;12384;48.112;18.418;2022-07-29T04:43:10;22.10;62.60
24260;DHT22;12384;48.112;18.418;2022-07-29T04:45:41;22.10;61.80
24260;DHT22;12384;48.112;18.418;2022-07-29T04:48:11;22.10;61.90
24260;DHT22;12384;48.112;18.418;2022-07-29T04:50:40;22.20;60.90
24260;DHT22;12384;48.112;18.418;2022-07-29T04:53:09;22.20;60.80
24260;DHT22;12384;48.112;18.418;2022-07-29T04:55:38;22.30;61.40
24260;DHT22;12384;48.112;18.418;2022-07-29T04:58:07;22.40;61.90
24260;DHT22;12384;48.112;18.418;2022-07-29T05:00:36;22.50;62.00
24260;DHT22;12384;48.112;18.418;2022-07-29T05:03:04;22.50;61.40
24260;DHT22;12384;48.112;18.418;2022-07-29T05:05:35;22.60;61.20
24260;DHT22;12384;48.112;18.418;2022-07-29T05:08:04;22.70;60.30
24260;DHT22;12384;48.112;18.418;2022-07-29T05:10:35;22.80;60.70
24260;DHT22;12384;48.112;18.418;2022-07-29T05:13:05;22.80;60.00
24260;DHT22;12384;48.112;18.418;2022-07-29T05:15:35;22.90;59.60
24260;DHT22;12384;48.112;18.418;2022-07-29T05:18:04;22.90;59.90
24260;DHT22;12384;48.112;18.418;2022-07-29T05:20:34;22.90;59.50
24260;DHT22;12384;48.112;18.418;2022-07-29T05:23:03;23.00;59.80
24260;DHT22;12384;48.112;18.418;2022-07-29T05:25:32;23.00;59.50
24260;DHT22;12384;48.112;18.418;2022-07-29T05:28:11;23.10;60.70
24260;DHT22;12384;48.112;18.418;2022-07-29T05:30:39;23.20;61.60
24260;DHT22;12384;48.112;18.418;2022-07-29T05:33:08;23.40;63.00
24260;DHT22;12384;48.112;18.418;2022-07-29T05:35:59;23.60;64.90
24260;DHT22;12384;48.112;18.418;2022-07-29T05:38:28;23.80;63.10
24260;DHT22;12384;48.112;18.418;2022-07-29T05:40:57;24.10;65.30
24260;DHT22;12384;48.112;18.418;2022-07-29T05:43:27;24.40;68.10
24260;DHT22;12384;48.112;18.418;2022-07-29T05:45:56;24.70;69.10
24260;DHT22;12384;48.112;18.418;2022-07-29T05:48:25;25.10;67.40
24260;DHT22;12384;48.112;18.418;2022-07-29T05:50:54;25.40;68.60
24260;DHT22;12384;48.112;18.418;2022-07-29T05:53:24;25.70;69.90
24260;DHT22;12384;48.112;18.418;2022-07-29T05:55:53;26.00;65.40
24260;DHT22;12384;48.112;18.418;2022-07-29T05:58:22;26.30;64.40
24260;DHT22;12384;48.112;18.418;2022-07-29T06:00:51;26.60;65.30
24260;DHT22;12384;48.112;18.418;2022-07-29T06:03:20;26.90;61.40
24260;DHT22;12384;48.112;18.418;2022-07-29T06:05:48;27.10;61.80
24260;DHT22;12384;48.112;18.418;2022-07-29T06:08:17;27.30;57.00
24260;DHT22;12384;48.112;18.418;2022-07-29T06:10:48;27.60;58.40
24260;DHT22;12384;48.112;18.418;2022-07-29T06:13:16;27.70;54.90
24260;DHT22;12384;48.112;18.418;2022-07-29T06:15:45;27.90;57.80
24260;DHT22;12384;48.112;18.418;2022-07-29T06:18:14;28.10;57.40
24260;DHT22;12384;48.112;18.418;2022-07-29T06:20:43;28.20;56.80
24260;DHT22;12384;48.112;18.418;2022-07-29T06:23:12;28.40;57.90
24260;DHT22;12384;48.112;18.418;2022-07-29T06:25:40;28.60;57.80
24260;DHT22;12384;48.112;18.418;2022-07-29T06:28:11;28.70;57.20
24260;DHT22;12384;48.112;18.418;2022-07-29T06:30:40;28.90;56.60
24260;DHT22;12384;48.112;18.418;2022-07-29T06:33:08;29.10;57.00
24260;DHT22;12384;48.112;18.418;2022-07-29T06:35:37;29.30;56.80
24260;DHT22;12384;48.112;18.418;2022-07-29T06:38:08;29.40;57.90
24260;DHT22;12384;48.112;18.418;2022-07-29T06:40:58;29.70;57.80
24260;DHT22;12384;48.112;18.418;2022-07-29T06:43:34;29.90;57.50
24260;DHT22;12384;48.112;18.418;2022-07-29T06:46:19;30.10;54.90
24260;DHT22;12384;48.112;18.418;2022-07-29T06:48:49;30.20;54.90
24260;DHT22;12384;48.112;18.418;2022-07-29T06:51:19;30.60;57.30
24260;DHT22;12384;48.112;18.418;2022-07-29T06:53:50;30.80;57.80
24260;DHT22;12384;48.112;18.418;2022-07-29T06:56:29;31.00;56.40
24260;DHT22;12384;48.112;18.418;2022-07-29T06:59:08;31.20;59.00
24260;DHT22;12384;48.112;18.418;2022-07-29T07:01:39;31.50;56.50
24260;DHT22;12384;48.112;18.418;2022-07-29T07:04:09;31.70;56.20
24260;DHT22;12384;48.112;18.418;2022-07-29T07:06:39;31.90;56.30
24260;DHT22;12384;48.112;18.418;2022-07-29T07:09:08;32.10;56.20
24260;DHT22;12384;48.112;18.418;2022-07-29T07:11:37;32.20;57.60
24260;DHT22;12384;48.112;18.418;2022-07-29T07:14:07;32.40;57.00
24260;DHT22;12384;48.112;18.418;2022-07-29T07:16:35;32.60;55.40
24260;DHT22;12384;48.112;18.418;2022-07-29T07:19:04;32.70;56.90
24260;DHT22;12384;48.112;18.418;2022-07-29T07:21:33;32.90;58.40
24260;DHT22;12384;48.112;18.418;2022-07-29T07:24:03;33.10;59.40
24260;DHT22;12384;48.112;18.418;2022-07-29T07:26:32;33.30;58.70
24260;DHT22;12384;48.112;18.418;2022-07-29T07:29:00;33.40;56.90
24260;DHT22;12384;48.112;18.418;2022-07-29T07:31:30;33.60;56.50
24260;DHT22;12384;48.112;18.418;2022-07-29T07:34:00;33.80;58.20
24260;DHT22;12384;48.112;18.418;2022-07-29T07:36:29;33.90;54.30
24260;DHT22;12384;48.112;18.418;2022-07-29T07:38:57;33.90;55.60
24260;DHT22;12384;48.112;18.418;2022-07-29T07:41:26;34.00;54.40
24260;DHT22;12384;48.112;18.418;2022-07-29T07:43:58;34.10;53.60
24260;DHT22;12384;48.112;18.418;2022-07-29T07:46:27;34.00;57.00
24260;DHT22;12384;48.112;18.418;2022-07-29T07:48:58;34.20;60.20
24260;DHT22;12384;48.112;18.418;2022-07-29T07:51:26;34.40;55.20
24260;DHT22;12384;48.112;18.418;2022-07-29T07:53:55;34.60;65.30
24260;DHT22;12384;48.112;18.418;2022-07-29T07:56:24;34.70;58.60
24260;DHT22;12384;48.112;18.418;2022-07-29T07:58:59;35.00;61.80
24260;DHT22;12384;48.112;18.418;2022-07-29T08:01:28;35.10;57.20
24260;DHT22;12384;48.112;18.418;2022-07-29T08:04:17;35.20;58.80
24260;DHT22;12384;48.112;18.418;2022-07-29T08:06:53;35.40;59.90
24260;DHT22;12384;48.112;18.418;2022-07-29T08:09:23;35.60;61.00
24260;DHT22;12384;48.112;18.418;2022-07-29T08:11:56;35.80;58.80
24260;DHT22;12384;48.112;18.418;2022-07-29T08:14:26;35.90;55.30
24260;DHT22;12384;48.112;18.418;2022-07-29T08:16:54;36.00;60.60
24260;DHT22;12384;48.112;18.418;2022-07-29T08:19:25;36.20;65.90
24260;DHT22;12384;48.112;18.418;2022-07-29T08:21:53;36.20;55.60
24260;DHT22;12384;48.112;18.418;2022-07-29T08:24:22;36.50;60.00
24260;DHT22;12384;48.112;18.418;2022-07-29T08:27:09;36.60;70.20
24260;DHT22;12384;48.112;18.418;2022-07-29T08:29:58;36.80;78.40
24260;DHT22;12384;48.112;18.418;2022-07-29T08:32:27;36.90;58.80
24260;DHT22;12384;48.112;18.418;2022-07-29T08:35:17;37.10;66.30
24260;DHT22;12384;48.112;18.418;2022-07-29T08:37:46;37.40;59.20
24260;DHT22;12384;48.112;18.418;2022-07-29T08:40:15;37.50;56.40
24260;DHT22;12384;48.112;18.418;2022-07-29T08:42:43;37.50;57.00
24260;DHT22;12384;48.112;18.418;2022-07-29T08:45:12;37.20;56.80
24260;DHT22;12384;48.112;18.418;2022-07-29T08:47:41;37.30;58.90
24260;DHT22;12384;48.112;18.418;2022-07-29T08:50:11;37.30;59.40
24260;DHT22;12384;48.112;18.418;2022-07-29T08:52:41;37.50;56.20
24260;DHT22;12384;48.112;18.418;2022-07-29T08:55:10;37.60;60.50
24260;DHT22;12384;48.112;18.418;2022-07-29T08:57:42;37.70;80.30
24260;DHT22;12384;48.112;18.418;2022-07-29T09:00:21;37.90;79.40
24260;DHT22;12384;48.112;18.418;2022-07-29T09:02:57;38.00;85.10
24260;DHT22;12384;48.112;18.418;2022-07-29T09:05:26;38.10;80.50
24260;DHT22;12384;48.112;18.418;2022-07-29T09:07:57;38.00;65.20
24260;DHT22;12384;48.112;18.418;2022-07-29T09:10:26;37.90;69.20
24260;DHT22;12384;48.112;18.418;2022-07-29T09:12:55;37.90;77.10
24260;DHT22;12384;48.112;18.418;2022-07-29T09:15:24;38.10;90.90
24260;DHT22;12384;48.112;18.418;2022-07-29T09:17:53;37.80;73.80
24260;DHT22;12384;48.112;18.418;2022-07-29T09:20:23;37.50;70.00
24260;DHT22;12384;48.112;18.418;2022-07-29T09:22:52;37.50;68.70
24260;DHT22;12384;48.112;18.418;2022-07-29T09:25:35;37.40;87.00
24260;DHT22;12384;48.112;18.418;2022-07-29T09:28:08;37.40;56.10
24260;DHT22;12384;48.112;18.418;2022-07-29T09:30:50;37.10;59.90
24260;DHT22;12384;48.112;18.418;2022-07-29T09:33:20;37.20;56.70
24260;DHT22;12384;48.112;18.418;2022-07-29T09:35:59;37.50;69.70
24260;DHT22;12384;48.112;18.418;2022-07-29T09:38:30;37.70;63.10
24260;DHT22;12384;48.112;18.418;2022-07-29T09:41:02;37.80;88.50
24260;DHT22;12384;48.112;18.418;2022-07-29T09:43:33;37.90;82.40
24260;DHT22;12384;48.112;18.418;2022-07-29T09:46:11;37.80;86.10
24260;DHT22;12384;48.112;18.418;2022-07-29T09:48:40;37.70;89.50
24260;DHT22;12384;48.112;18.418;2022-07-29T09:51:17;37.50;94.00
24260;DHT22;12384;48.112;18.418;2022-07-29T09:53:52;37.50;58.30
24260;DHT22;12384;48.112;18.418;2022-07-29T09:56:38;37.60;89.90
24260;DHT22;12384;48.112;18.418;2022-07-29T09:59:08;37.80;76.00
24260;DHT22;12384;48.112;18.418;2022-07-29T10:01:38;38.10;78.30
24260;DHT22;12384;48.112;18.418;2022-07-29T10:04:07;38.50;96.00
24260;DHT22;12384;48.112;18.418;2022-07-29T10:06:55;38.70;93.40
24260;DHT22;12384;48.112;18.418;2022-07-29T10:09:31;38.90;81.30
24260;DHT22;12384;48.112;18.418;2022-07-29T10:12:09;39.20;72.50
24260;DHT22;12384;48.112;18.418;2022-07-29T10:14:41;39.10;89.90
24260;DHT22;12384;48.112;18.418;2022-07-29T10:17:10;38.80;74.70
24260;DHT22;12384;48.112;18.418;2022-07-29T10:19:39;39.10;98.10
24260;DHT22;12384;48.112;18.418;2022-07-29T10:22:10;39.10;84.70
24260;DHT22;12384;48.112;18.418;2022-07-29T10:24:41;38.60;74.30
24260;DHT22;12384;48.112;18.418;2022-07-29T10:27:11;38.50;93.40
24260;DHT22;12384;48.112;18.418;2022-07-29T10:29:40;38.50;97.40
24260;DHT22;12384;48.112;18.418;2022-07-29T10:32:29;38.30;90.60
24260;DHT22;12384;48.112;18.418;2022-07-29T10:35:35;38.00;94.30
24260;DHT22;12384;48.112;18.418;2022-07-29T10:38:26;37.70;91.30
24260;DHT22;12384;48.112;18.418;2022-07-29T10:41:06;37.70;99.90
24260;DHT22;12384;48.112;18.418;2022-07-29T10:44:14;37.60;99.40
24260;DHT22;12384;48.112;18.418;2022-07-29T10:46:49;37.30;99.90
24260;DHT22;12384;48.112;18.418;2022-07-29T10:49:19;37.20;92.20
24260;DHT22;12384;48.112;18.418;2022-07-29T10:51:59;37.40;95.80
24260;DHT22;12384;48.112;18.418;2022-07-29T10:54:53;37.70;70.70
24260;DHT22;12384;48.112;18.418;2022-07-29T10:57:27;37.90;43.20
24260;DHT22;12384;48.112;18.418;2022-07-29T11:00:30;38.10;99.90
24260;DHT22;12384;48.112;18.418;2022-07-29T11:02:59;38.50;59.30
24260;DHT22;12384;48.112;18.418;2022-07-29T11:05:57;38.70;79.40
24260;DHT22;12384;48.112;18.418;2022-07-29T11:08:26;39.00;62.40
24260;DHT22;12384;48.112;18.418;2022-07-29T11:14:17;39.20;76.90
24260;DHT22;12384;48.112;18.418;2022-07-29T11:17:02;39.40;92.70
24260;DHT22;12384;48.112;18.418;2022-07-29T11:19:33;39.80;71.50
24260;DHT22;12384;48.112;18.418;2022-07-29T11:22:10;39.50;71.70
24260;DHT22;12384;48.112;18.418;2022-07-29T11:24:42;39.80;95.20
24260;DHT22;12384;48.112;18.418;2022-07-29T11:27:18;40.00;90.90
24260;DHT22;12384;48.112;18.418;2022-07-29T11:29:54;39.00;73.80
24260;DHT22;12384;48.112;18.418;2022-07-29T11:32:35;38.30;43.40
24260;DHT22;12384;48.112;18.418;2022-07-29T11:35:15;37.80;90.30
24260;DHT22;12384;48.112;18.418;2022-07-29T11:37:45;37.70;90.20
24260;DHT22;12384;48.112;18.418;2022-07-29T11:40:21;37.30;92.00
24260;DHT22;12384;48.112;18.418;2022-07-29T11:42:51;37.10;99.90
24260;DHT22;12384;48.112;18.418;2022-07-29T11:45:25;36.50;91.80
24260;DHT22;12384;48.112;18.418;2022-07-29T11:48:21;36.20;99.90
24260;DHT22;12384;48.112;18.418;2022-07-29T11:50:59;36.20;98.70
24260;DHT22;12384;48.112;18.418;2022-07-29T11:53:29;36.10;93.40
24260;DHT22;12384;48.112;18.418;2022-07-29T11:56:00;36.20;96.60
24260;DHT22;12384;48.112;18.418;2022-07-29T11:58:30;36.50;88.30
24260;DHT22;12384;48.112;18.418;2022-07-29T12:01:00;36.80;97.50
24260;DHT22;12384;48.112;18.418;2022-07-29T12:03:32;37.00;99.90
24260;DHT22;12384;48.112;18.418;2022-07-29T12:06:11;37.10;97.70
24260;DHT22;12384;48.112;18.418;2022-07-29T12:08:42;37.10;81.40
24260;DHT22;12384;48.112;18.418;2022-07-29T12:11:19;37.20;77.20
24260;DHT22;12384;48.112;18.418;2022-07-29T12:13:50;37.00;74.70
24260;DHT22;12384;48.112;18.418;2022-07-29T12:16:19;36.90;77.20
24260;DHT22;12384;48.112;18.418;2022-07-29T12:18:57;37.00;69.80
24260;DHT22;12384;48.112;18.418;2022-07-29T12:21:28;37.30;76.40
24260;DHT22;12384;48.112;18.418;2022-07-29T12:23:57;37.90;85.10
24260;DHT22;12384;48.112;18.418;2022-07-29T12:26:35;38.30;77.80
24260;DHT22;12384;48.112;18.418;2022-07-29T12:29:06;38.40;73.30
24260;DHT22;12384;48.112;18.418;2022-07-29T12:31:46;38.30;73.40
24260;DHT22;12384;48.112;18.418;2022-07-29T12:34:16;38.60;69.80
24260;DHT22;12384;48.112;18.418;2022-07-29T12:36:45;38.90;66.20
24260;DHT22;12384;48.112;18.418;2022-07-29T12:39:15;38.40;68.20
24260;DHT22;12384;48.112;18.418;2022-07-29T12:41:45;38.50;79.50
24260;DHT22;12384;48.112;18.418;2022-07-29T12:44:13;38.40;78.80
24260;DHT22;12384;48.112;18.418;2022-07-29T12:46:42;38.10;64.40
24260;DHT22;12384;48.112;18.418;2022-07-29T12:49:22;38.10;75.10
24260;DHT22;12384;48.112;18.418;2022-07-29T12:51:51;38.60;72.90
24260;DHT22;12384;48.112;18.418;2022-07-29T12:54:20;38.90;59.70
24260;DHT22;12384;48.112;18.418;2022-07-29T12:56:58;39.20;75.90
24260;DHT22;12384;48.112;18.418;2022-07-29T12:59:27;39.60;45.70
24260;DHT22;12384;48.112;18.418;2022-07-29T13:01:56;40.00;75.90
24260;DHT22;12384;48.112;18.418;2022-07-29T13:04:30;40.10;63.70
24260;DHT22;12384;48.112;18.418;2022-07-29T13:07:00;40.40;80.50
24260;DHT22;12384;48.112;18.418;2022-07-29T13:09:38;40.70;76.50
24260;DHT22;12384;48.112;18.418;2022-07-29T13:12:08;40.40;81.40
24260;DHT22;12384;48.112;18.418;2022-07-29T13:14:38;39.90;84.60
24260;DHT22;12384;48.112;18.418;2022-07-29T13:17:10;39.70;97.90
24260;DHT22;12384;48.112;18.418;2022-07-29T13:19:42;39.30;93.30
24260;DHT22;12384;48.112;18.418;2022-07-29T13:22:13;38.50;56.60
24260;DHT22;12384;48.112;18.418;2022-07-29T13:24:46;37.40;61.20
24260;DHT22;12384;48.112;18.418;2022-07-29T13:27:16;37.10;70.80
24260;DHT22;12384;48.112;18.418;2022-07-29T13:29:45;36.80;76.80
24260;DHT22;12384;48.112;18.418;2022-07-29T13:32:14;36.40;90.50
24260;DHT22;12384;48.112;18.418;2022-07-29T13:34:44;36.30;91.90
24260;DHT22;12384;48.112;18.418;2022-07-29T13:37:13;36.20;82.70
24260;DHT22;12384;48.112;18.418;2022-07-29T13:39:42;36.30;95.40
24260;DHT22;12384;48.112;18.418;2022-07-29T13:42:19;36.20;79.70
24260;DHT22;12384;48.112;18.418;2022-07-29T13:44:48;36.20;95.90
24260;DHT22;12384;48.112;18.418;2022-07-29T13:47:19;36.30;90.70
24260;DHT22;12384;48.112;18.418;2022-07-29T13:49:49;36.40;96.80
24260;DHT22;12384;48.112;18.418;2022-07-29T13:52:18;36.50;81.90
24260;DHT22;12384;48.112;18.418;2022-07-29T13:54:47;36.50;93.60
24260;DHT22;12384;48.112;18.418;2022-07-29T13:57:16;36.50;74.10
24260;DHT22;12384;48.112;18.418;2022-07-29T13:59:45;36.50;92.70
24260;DHT22;12384;48.112;18.418;2022-07-29T14:02:20;36.50;91.90
24260;DHT22;12384;48.112;18.418;2022-07-29T14:04:53;36.50;76.20
24260;DHT22;12384;48.112;18.418;2022-07-29T14:07:23;36.60;86.50
24260;DHT22;12384;48.112;18.418;2022-07-29T14:09:51;36.70;96.40
24260;DHT22;12384;48.112;18.418;2022-07-29T14:12:20;36.70;85.50
24260;DHT22;12384;48.112;18.418;2022-07-29T14:14:49;36.60;77.40
24260;DHT22;12384;48.112;18.418;2022-07-29T14:17:18;36.50;74.80
24260;DHT22;12384;48.112;18.418;2022-07-29T14:19:47;36.40;78.00
24260;DHT22;12384;48.112;18.418;2022-07-29T14:22:17;36.30;85.00
24260;DHT22;12384;48.112;18.418;2022-07-29T14:24:51;36.10;70.10
24260;DHT22;12384;48.112;18.418;2022-07-29T14:27:21;36.00;71.30
24260;DHT22;12384;48.112;18.418;2022-07-29T14:30:05;35.90;70.00
24260;DHT22;12384;48.112;18.418;2022-07-29T14:32:35;35.80;79.70
24260;DHT22;12384;48.112;18.418;2022-07-29T14:35:05;35.70;73.50
24260;DHT22;12384;48.112;18.418;2022-07-29T14:37:35;35.70;71.50
24260;DHT22;12384;48.112;18.418;2022-07-29T14:40:08;35.60;67.00
24260;DHT22;12384;48.112;18.418;2022-07-29T14:42:37;35.60;74.40
24260;DHT22;12384;48.112;18.418;2022-07-29T14:45:07;35.50;74.90
24260;DHT22;12384;48.112;18.418;2022-07-29T14:47:37;35.50;72.50
24260;DHT22;12384;48.112;18.418;2022-07-29T14:50:07;35.40;68.00
24260;DHT22;12384;48.112;18.418;2022-07-29T14:52:37;35.50;76.50
24260;DHT22;12384;48.112;18.418;2022-07-29T14:55:07;35.40;78.20
24260;DHT22;12384;48.112;18.418;2022-07-29T14:57:46;35.40;85.00
24260;DHT22;12384;48.112;18.418;2022-07-29T15:00:16;35.30;76.80
24260;DHT22;12384;48.112;18.418;2022-07-29T15:02:45;35.30;79.50
24260;DHT22;12384;48.112;18.418;2022-07-29T15:05:30;35.30;77.00
24260;DHT22;12384;48.112;18.418;2022-07-29T15:08:00;35.20;74.30
24260;DHT22;12384;48.112;18.418;2022-07-29T15:10:30;35.20;76.20
24260;DHT22;12384;48.112;18.418;2022-07-29T15:12:59;35.20;78.10
24260;DHT22;12384;48.112;18.418;2022-07-29T15:15:28;35.10;70.40
24260;DHT22;12384;48.112;18.418;2022-07-29T15:17:56;35.10;70.70
24260;DHT22;12384;48.112;18.418;2022-07-29T15:20:25;35.00;71.20
24260;DHT22;12384;48.112;18.418;2022-07-29T15:22:55;35.00;70.60
24260;DHT22;12384;48.112;18.418;2022-07-29T15:25:26;34.90;69.40
24260;DHT22;12384;48.112;18.418;2022-07-29T15:27:55;34.90;70.40
24260;DHT22;12384;48.112;18.418;2022-07-29T15:30:30;34.80;72.90
24260;DHT22;12384;48.112;18.418;2022-07-29T15:33:01;34.70;66.20
24260;DHT22;12384;48.112;18.418;2022-07-29T15:35:30;34.40;59.50
24260;DHT22;12384;48.112;18.418;2022-07-29T15:38:06;33.90;55.80
24260;DHT22;12384;48.112;18.418;2022-07-29T15:40:38;33.40;54.40
24260;DHT22;12384;48.112;18.418;2022-07-29T15:43:09;33.10;50.50
24260;DHT22;12384;48.112;18.418;2022-07-29T15:45:40;32.70;49.20
24260;DHT22;12384;48.112;18.418;2022-07-29T15:48:29;32.30;48.40
24260;DHT22;12384;48.112;18.418;2022-07-29T15:50:58;32.00;50.10